sensor_id;sensor_type;location;lat;lon;timestamp;pressure;altitude;pressure_sealevel;temperature;humidity
38227;BME280;24026;49.446;8.576;2024-02-23T00:01:59;98346.00;;;14.41;49.19
38227;BME280;24026;49.446;8.576;2024-02-23T00:04:20;98361.56;;;14.39;49.31
38227;BME280;24026;49.446;8.576;2024-02-23T00:06:40;98374.16;;;14.39;49.02
38227;BME280;24026;49.446;8.576;2024-02-23T00:09:00;98379.81;;;14.37;49.04
38227;BME280;24026;49.446;8.576;2024-02-23T00:11:21;98376.38;;;14.37;48.84
38227;BME280;24026;49.446;8.576;2024-02-23T00:13:41;98385.16;;;14.37;48.93
38227;BME280;24026;49.446;8.576;2024-02-23T00:16:02;98392.72;;;14.35;49.00
38227;BME280;24026;49.446;8.576;2024-02-23T00:18:22;98398.84;;;14.36;49.06
38227;BME280;24026;49.446;8.576;2024-02-23T00:20:43;98399.94;;;14.35;49.06
38227;BME280;24026;49.446;8.576;2024-02-23T00:23:04;98404.50;;;14.34;48.99
38227;BME280;24026;49.446;8.576;2024-02-23T00:25:24;98422.41;;;14.34;48.71
38227;BME280;24026;49.446;8.576;2024-02-23T00:27:44;98432.31;;;14.33;48.72
38227;BME280;24026;49.446;8.576;2024-02-23T00:30:07;98435.31;;;14.32;48.85
38227;BME280;24026;49.446;8.576;2024-02-23T00:32:27;98434.19;;;14.33;48.48
38227;BME280;24026;49.446;8.576;2024-02-23T00:34:48;98424.63;;;14.32;48.42
38227;BME280;24026;49.446;8.576;2024-02-23T00:37:08;98419.59;;;14.30;48.35
38227;BME280;24026;49.446;8.576;2024-02-23T00:39:28;98439.69;;;14.27;48.52
38227;BME280;24026;49.446;8.576;2024-02-23T00:41:49;98446.94;;;14.27;48.42
38227;BME280;24026;49.446;8.576;2024-02-23T00:44:09;98447.25;;;14.25;48.40
38227;BME280;24026;49.446;8.576;2024-02-23T00:46:30;98451.81;;;14.25;48.35
38227;BME280;24026;49.446;8.576;2024-02-23T00:48:50;98450.22;;;14.24;48.41
38227;BME280;24026;49.446;8.576;2024-02-23T00:51:11;98445.19;;;14.22;48.28
38227;BME280;24026;49.446;8.576;2024-02-23T00:53:31;98453.53;;;14.21;48.33
38227;BME280;24026;49.446;8.576;2024-02-23T00:55:52;98453.81;;;14.19;48.43
38227;BME280;24026;49.446;8.576;2024-02-23T00:58:13;98446.94;;;14.18;48.45
38227;BME280;24026;49.446;8.576;2024-02-23T01:00:33;98445.34;;;14.17;48.38
38227;BME280;24026;49.446;8.576;2024-02-23T01:02:53;98435.75;;;14.16;48.65
38227;BME280;24026;49.446;8.576;2024-02-23T01:05:14;98429.63;;;14.16;48.72
38227;BME280;24026;49.446;8.576;2024-02-23T01:07:35;98441.41;;;14.15;48.60
38227;BME280;24026;49.446;8.576;2024-02-23T01:09:56;98445.97;;;14.14;48.72
38227;BME280;24026;49.446;8.576;2024-02-23T01:12:16;98442.50;;;14.14;48.47
38227;BME280;24026;49.446;8.576;2024-02-23T01:14:37;98462.31;;;14.13;48.58
38227;BME280;24026;49.446;8.576;2024-02-23T01:16:57;98469.22;;;14.14;48.46
38227;BME280;24026;49.446;8.576;2024-02-23T01:19:17;98461.53;;;14.12;48.48
38227;BME280;24026;49.446;8.576;2024-02-23T01:21:39;98468.75;;;14.12;48.52
38227;BME280;24026;49.446;8.576;2024-02-23T01:23:59;98461.84;;;14.11;48.64
38227;BME280;24026;49.446;8.576;2024-02-23T01:26:20;98466.41;;;14.10;48.61
38227;BME280;24026;49.446;8.576;2024-02-23T01:28:41;98471.75;;;14.10;48.32
38227;BME280;24026;49.446;8.576;2024-02-23T01:31:02;98478.16;;;14.09;48.27
38227;BME280;24026;49.446;8.576;2024-02-23T01:33:24;98482.72;;;14.08;48.40
38227;BME280;24026;49.446;8.576;2024-02-23T01:35:44;98505.19;;;14.07;48.43
38227;BME280;24026;49.446;8.576;2024-02-23T01:38:04;98505.19;;;14.07;48.43
38227;BME280;24026;49.446;8.576;2024-02-23T01:40:25;98496.69;;;14.05;48.23
38227;BME280;24026;49.446;8.576;2024-02-23T01:42:46;98511.16;;;14.04;47.72
38227;BME280;24026;49.446;8.576;2024-02-23T01:45:06;98515.72;;;14.04;47.79
38227;BME280;24026;49.446;8.576;2024-02-23T01:47:28;98532.50;;;14.04;47.53
38227;BME280;24026;49.446;8.576;2024-02-23T01:49:50;98561.44;;;14.02;47.56
38227;BME280;24026;49.446;8.576;2024-02-23T01:52:11;98574.31;;;14.00;47.71
38227;BME280;24026;49.446;8.576;2024-02-23T01:54:33;98571.94;;;13.99;47.51
38227;BME280;24026;49.446;8.576;2024-02-23T01:56:55;98575.69;;;13.98;47.50
38227;BME280;24026;49.446;8.576;2024-02-23T01:59:16;98585.91;;;13.96;47.60
38227;BME280;24026;49.446;8.576;2024-02-23T02:01:37;98577.41;;;13.94;47.62
38227;BME280;24026;49.446;8.576;2024-02-23T02:04:00;98579.63;;;13.92;47.61
38227;BME280;24026;49.446;8.576;2024-02-23T02:06:21;98577.25;;;13.90;47.47
38227;BME280;24026;49.446;8.576;2024-02-23T02:08:41;98575.66;;;13.89;47.64
38227;BME280;24026;49.446;8.576;2024-02-23T02:11:02;98579.41;;;13.88;47.59
38227;BME280;24026;49.446;8.576;2024-02-23T02:13:22;98585.06;;;13.86;47.65
38227;BME280;24026;49.446;8.576;2024-02-23T02:15:43;98578.47;;;13.84;47.72
38227;BME280;24026;49.446;8.576;2024-02-23T02:18:06;98574.50;;;13.81;47.71
38227;BME280;24026;49.446;8.576;2024-02-23T02:20:27;98571.84;;;13.81;47.87
38227;BME280;24026;49.446;8.576;2024-02-23T02:22:48;98578.28;;;13.80;47.77
38227;BME280;24026;49.446;8.576;2024-02-23T02:25:09;98573.25;;;13.79;47.69
38227;BME280;24026;49.446;8.576;2024-02-23T02:27:29;98577.81;;;13.78;47.76
38227;BME280;24026;49.446;8.576;2024-02-23T02:29:50;98585.81;;;13.78;47.80
38227;BME280;24026;49.446;8.576;2024-02-23T02:32:12;98580.78;;;13.77;47.86
38227;BME280;24026;49.446;8.576;2024-02-23T02:34:33;98583.47;;;13.77;47.92
38227;BME280;24026;49.446;8.576;2024-02-23T02:36:53;98595.22;;;13.76;47.90
38227;BME280;24026;49.446;8.576;2024-02-23T02:39:13;98594.44;;;13.75;48.03
38227;BME280;24026;49.446;8.576;2024-02-23T02:41:34;98589.09;;;13.75;48.02
38227;BME280;24026;49.446;8.576;2024-02-23T02:43:55;98587.50;;;13.74;47.78
38227;BME280;24026;49.446;8.576;2024-02-23T02:46:15;98602.75;;;13.74;47.98
38227;BME280;24026;49.446;8.576;2024-02-23T02:48:35;98597.41;;;13.74;48.12
38227;BME280;24026;49.446;8.576;2024-02-23T02:50:56;98589.41;;;13.74;48.10
38227;BME280;24026;49.446;8.576;2024-02-23T02:53:17;98585.94;;;13.73;48.00
38227;BME280;24026;49.446;8.576;2024-02-23T02:55:42;98585.94;;;13.73;48.09
38227;BME280;24026;49.446;8.576;2024-02-23T02:58:02;98592.38;;;13.72;48.07
38227;BME280;24026;49.446;8.576;2024-02-23T03:00:23;98594.56;;;13.70;48.16
38227;BME280;24026;49.446;8.576;2024-02-23T03:02:43;98592.38;;;13.72;48.13
38227;BME280;24026;49.446;8.576;2024-02-23T03:05:04;98596.13;;;13.71;48.20
38227;BME280;24026;49.446;8.576;2024-02-23T03:07:25;98596.94;;;13.71;48.17
38227;BME280;24026;49.446;8.576;2024-02-23T03:09:45;98592.69;;;13.70;48.18
38227;BME280;24026;49.446;8.576;2024-02-23T03:12:06;98593.75;;;13.69;48.14
38227;BME280;24026;49.446;8.576;2024-02-23T03:14:26;98597.25;;;13.70;48.31
38227;BME280;24026;49.446;8.576;2024-02-23T03:16:48;98604.44;;;13.69;48.17
38227;BME280;24026;49.446;8.576;2024-02-23T03:19:09;98604.44;;;13.69;48.18
38227;BME280;24026;49.446;8.576;2024-02-23T03:21:30;98607.94;;;13.70;48.22
38227;BME280;24026;49.446;8.576;2024-02-23T03:23:50;98615.94;;;13.70;48.17
38227;BME280;24026;49.446;8.576;2024-02-23T03:26:11;98616.72;;;13.70;48.38
38227;BME280;24026;49.446;8.576;2024-02-23T03:28:31;98605.25;;;13.70;48.26
38227;BME280;24026;49.446;8.576;2024-02-23T03:30:52;98611.38;;;13.70;48.27
38227;BME280;24026;49.446;8.576;2024-02-23T03:33:12;98593.00;;;13.69;48.27
38227;BME280;24026;49.446;8.576;2024-02-23T03:35:32;98604.44;;;13.69;48.21
38227;BME280;24026;49.446;8.576;2024-02-23T03:37:53;98599.91;;;13.70;48.21
38227;BME280;24026;49.446;8.576;2024-02-23T03:40:14;98596.44;;;13.69;48.21
38227;BME280;24026;49.446;8.576;2024-02-23T03:42:34;98590.00;;;13.70;48.12
38227;BME280;24026;49.446;8.576;2024-02-23T03:44:55;98587.66;;;13.69;48.23
38227;BME280;24026;49.446;8.576;2024-02-23T03:47:15;98588.44;;;13.69;48.13
38227;BME280;24026;49.446;8.576;2024-02-23T03:49:35;98599.91;;;13.70;48.11
38227;BME280;24026;49.446;8.576;2024-02-23T03:51:56;98595.66;;;13.69;48.08
38227;BME280;24026;49.446;8.576;2024-02-23T03:54:16;98593.00;;;13.69;48.22
38227;BME280;24026;49.446;8.576;2024-02-23T03:56:40;98603.38;;;13.70;48.03
38227;BME280;24026;49.446;8.576;2024-02-23T03:59:01;98601.78;;;13.69;48.08
38227;BME280;24026;49.446;8.576;2024-02-23T04:01:22;98602.88;;;13.68;48.10
38227;BME280;24026;49.446;8.576;2024-02-23T04:03:42;98594.88;;;13.68;48.10
38227;BME280;24026;49.446;8.576;2024-02-23T04:06:02;98591.41;;;13.68;48.20
38227;BME280;24026;49.446;8.576;2024-02-23T04:08:23;98598.63;;;13.67;48.20
38227;BME280;24026;49.446;8.576;2024-02-23T04:10:43;98597.53;;;13.68;48.05
38227;BME280;24026;49.446;8.576;2024-02-23T04:13:04;98600.53;;;13.67;48.13
38227;BME280;24026;49.446;8.576;2024-02-23T04:15:24;98603.97;;;13.67;48.31
38227;BME280;24026;49.446;8.576;2024-02-23T04:17:46;98617.31;;;13.67;48.21
38227;BME280;24026;49.446;8.576;2024-02-23T04:20:07;98613.88;;;13.67;48.18
38227;BME280;24026;49.446;8.576;2024-02-23T04:22:29;98623.75;;;13.66;48.03
38227;BME280;24026;49.446;8.576;2024-02-23T04:24:49;98627.22;;;13.67;48.01
38227;BME280;24026;49.446;8.576;2024-02-23T04:27:10;98633.63;;;13.66;48.01
38227;BME280;24026;49.446;8.576;2024-02-23T04:29:30;98641.34;;;13.67;47.99
38227;BME280;24026;49.446;8.576;2024-02-23T04:31:52;98645.09;;;13.66;47.92
38227;BME280;24026;49.446;8.576;2024-02-23T04:34:14;98649.66;;;13.66;48.19
38227;BME280;24026;49.446;8.576;2024-02-23T04:36:35;98639.28;;;13.64;48.04
38227;BME280;24026;49.446;8.576;2024-02-23T04:38:55;98644.63;;;13.64;47.94
38227;BME280;24026;49.446;8.576;2024-02-23T04:41:19;98647.28;;;13.64;47.96
38227;BME280;24026;49.446;8.576;2024-02-23T04:43:40;98642.25;;;13.63;48.02
38227;BME280;24026;49.446;8.576;2024-02-23T04:46:00;98646.50;;;13.64;48.00
38227;BME280;24026;49.446;8.576;2024-02-23T04:48:21;98650.25;;;13.63;47.96
38227;BME280;24026;49.446;8.576;2024-02-23T04:50:41;98639.56;;;13.63;47.83
38227;BME280;24026;49.446;8.576;2024-02-23T04:53:02;98635.34;;;13.62;47.76
38227;BME280;24026;49.446;8.576;2024-02-23T04:55:22;98636.13;;;13.62;47.78
38227;BME280;24026;49.446;8.576;2024-02-23T04:57:43;98620.13;;;13.62;47.74
38227;BME280;24026;49.446;8.576;2024-02-23T05:00:03;98626.53;;;13.61;47.39
38227;BME280;24026;49.446;8.576;2024-02-23T05:02:24;98617.75;;;13.61;47.53
38227;BME280;24026;49.446;8.576;2024-02-23T05:04:44;98624.97;;;13.60;47.61
38227;BME280;24026;49.446;8.576;2024-02-23T05:07:05;98612.72;;;13.59;47.36
38227;BME280;24026;49.446;8.576;2024-02-23T05:09:25;98621.50;;;13.60;47.39
38227;BME280;24026;49.446;8.576;2024-02-23T05:11:46;98640.19;;;13.60;47.25
38227;BME280;24026;49.446;8.576;2024-02-23T05:14:07;98622.59;;;13.59;47.39
38227;BME280;24026;49.446;8.576;2024-02-23T05:16:28;98621.00;;;13.58;47.27
38227;BME280;24026;49.446;8.576;2024-02-23T05:18:48;98630.91;;;13.57;47.22
38227;BME280;24026;49.446;8.576;2024-02-23T05:21:09;98633.59;;;13.57;47.14
38227;BME280;24026;49.446;8.576;2024-02-23T05:23:30;98633.59;;;13.57;47.16
38227;BME280;24026;49.446;8.576;2024-02-23T05:25:50;98636.56;;;13.56;47.22
38227;BME280;24026;49.446;8.576;2024-02-23T05:28:10;98641.88;;;13.56;47.18
38227;BME280;24026;49.446;8.576;2024-02-23T05:30:31;98638.44;;;13.55;47.08
38227;BME280;24026;49.446;8.576;2024-02-23T05:32:51;98633.09;;;13.55;47.17
38227;BME280;24026;49.446;8.576;2024-02-23T05:35:12;98640.31;;;13.55;47.10
38227;BME280;24026;49.446;8.576;2024-02-23T05:37:37;98633.41;;;13.53;46.99
38227;BME280;24026;49.446;8.576;2024-02-23T05:39:58;98638.75;;;13.53;47.19
38227;BME280;24026;49.446;8.576;2024-02-23T05:42:20;98640.59;;;13.53;46.91
38227;BME280;24026;49.446;8.576;2024-02-23T05:44:43;98651.28;;;13.53;46.93
38227;BME280;24026;49.446;8.576;2024-02-23T05:47:04;98663.84;;;13.52;47.10
38227;BME280;24026;49.446;8.576;2024-02-23T05:49:25;98659.63;;;13.51;46.92
38227;BME280;24026;49.446;8.576;2024-02-23T05:51:45;98661.47;;;13.51;46.93
38227;BME280;24026;49.446;8.576;2024-02-23T05:54:05;98664.13;;;13.51;47.09
38227;BME280;24026;49.446;8.576;2024-02-23T05:56:26;98672.97;;;13.51;46.76
38227;BME280;24026;49.446;8.576;2024-02-23T05:58:46;98677.78;;;13.49;46.91
38227;BME280;24026;49.446;8.576;2024-02-23T06:01:07;98679.69;;;13.49;46.73
38227;BME280;24026;49.446;8.576;2024-02-23T06:03:27;98677.78;;;13.49;46.69
38227;BME280;24026;49.446;8.576;2024-02-23T06:05:47;98684.22;;;13.48;46.84
38227;BME280;24026;49.446;8.576;2024-02-23T06:08:08;98696.47;;;13.49;46.67
38227;BME280;24026;49.446;8.576;2024-02-23T06:10:28;98693.03;;;13.49;46.73
38227;BME280;24026;49.446;8.576;2024-02-23T06:12:48;98702.63;;;13.50;46.62
38227;BME280;24026;49.446;8.576;2024-02-23T06:15:09;98710.63;;;13.50;46.64
38227;BME280;24026;49.446;8.576;2024-02-23T06:17:29;98693.81;;;13.49;46.57
38227;BME280;24026;49.446;8.576;2024-02-23T06:19:50;98700.25;;;13.48;46.60
38227;BME280;24026;49.446;8.576;2024-02-23T06:22:10;98704.78;;;13.48;46.60
38227;BME280;24026;49.446;8.576;2024-02-23T06:24:33;98705.28;;;13.50;46.59
38227;BME280;24026;49.446;8.576;2024-02-23T06:26:54;98703.69;;;13.49;46.32
38227;BME280;24026;49.446;8.576;2024-02-23T06:29:14;98705.28;;;13.50;46.40
38227;BME280;24026;49.446;8.576;2024-02-23T06:31:35;98703.41;;;13.50;46.33
38227;BME280;24026;49.446;8.576;2024-02-23T06:33:55;98703.09;;;13.52;46.15
38227;BME280;24026;49.446;8.576;2024-02-23T06:36:16;98703.88;;;13.52;46.20
38227;BME280;24026;49.446;8.576;2024-02-23T06:38:36;98709.22;;;13.52;46.28
38227;BME280;24026;49.446;8.576;2024-02-23T06:40:56;98706.53;;;13.52;46.08
38227;BME280;24026;49.446;8.576;2024-02-23T06:43:17;98719.59;;;13.54;46.28
38227;BME280;24026;49.446;8.576;2024-02-23T06:45:38;98710.81;;;13.53;46.07
38227;BME280;24026;49.446;8.576;2024-02-23T06:47:58;98710.81;;;13.53;46.20
38227;BME280;24026;49.446;8.576;2024-02-23T06:50:19;98710.81;;;13.53;46.07
38227;BME280;24026;49.446;8.576;2024-02-23T06:52:39;98706.25;;;13.54;46.05
38227;BME280;24026;49.446;8.576;2024-02-23T06:55:00;98707.03;;;13.55;46.01
38227;BME280;24026;49.446;8.576;2024-02-23T06:57:21;98707.03;;;13.55;45.88
38227;BME280;24026;49.446;8.576;2024-02-23T06:59:42;98703.56;;;13.54;45.93
38227;BME280;24026;49.446;8.576;2024-02-23T07:02:03;98696.34;;;13.55;45.66
38227;BME280;24026;49.446;8.576;2024-02-23T07:04:24;98694.78;;;13.53;45.76
38227;BME280;24026;49.446;8.576;2024-02-23T07:06:45;98694.78;;;13.53;45.77
38227;BME280;24026;49.446;8.576;2024-02-23T07:09:05;98697.47;;;13.53;45.66
38227;BME280;24026;49.446;8.576;2024-02-23T07:11:26;98691.31;;;13.53;45.64
38227;BME280;24026;49.446;8.576;2024-02-23T07:13:46;98691.31;;;13.53;45.53
38227;BME280;24026;49.446;8.576;2024-02-23T07:16:07;98702.00;;;13.53;45.60
38227;BME280;24026;49.446;8.576;2024-02-23T07:18:27;98696.66;;;13.53;45.46
38227;BME280;24026;49.446;8.576;2024-02-23T07:20:48;98707.31;;;13.53;45.56
38227;BME280;24026;49.446;8.576;2024-02-23T07:23:08;98699.66;;;13.51;45.46
38227;BME280;24026;49.446;8.576;2024-02-23T07:25:29;98702.31;;;13.51;45.44
38227;BME280;24026;49.446;8.576;2024-02-23T07:27:50;98706.06;;;13.50;45.42
38227;BME280;24026;49.446;8.576;2024-02-23T07:30:11;98701.81;;;13.49;45.27
38227;BME280;24026;49.446;8.576;2024-02-23T07:32:32;98715.16;;;13.49;45.26
38227;BME280;24026;49.446;8.576;2024-02-23T07:34:52;98713.59;;;13.48;45.04
38227;BME280;24026;49.446;8.576;2024-02-23T07:37:13;98716.25;;;13.48;45.00
38227;BME280;24026;49.446;8.576;2024-02-23T07:39:34;98722.69;;;13.47;44.94
38227;BME280;24026;49.446;8.576;2024-02-23T07:41:54;98713.88;;;13.47;44.88
38227;BME280;24026;49.446;8.576;2024-02-23T07:44:14;98716.56;;;13.47;44.66
38227;BME280;24026;49.446;8.576;2024-02-23T07:46:35;98728.78;;;13.48;44.80
38227;BME280;24026;49.446;8.576;2024-02-23T07:48:55;98710.09;;;13.48;44.69
38227;BME280;24026;49.446;8.576;2024-02-23T07:51:16;98710.91;;;13.48;44.57
38227;BME280;24026;49.446;8.576;2024-02-23T07:53:36;98722.38;;;13.49;44.24
38227;BME280;24026;49.446;8.576;2024-02-23T07:55:57;98731.97;;;13.50;44.73
38227;BME280;24026;49.446;8.576;2024-02-23T07:58:19;98725.81;;;13.49;44.52
38227;BME280;24026;49.446;8.576;2024-02-23T08:00:39;98729.00;;;13.51;44.50
38227;BME280;24026;49.446;8.576;2024-02-23T08:03:00;98730.56;;;13.52;44.41
38227;BME280;24026;49.446;8.576;2024-02-23T08:05:21;98735.91;;;13.52;44.38
38227;BME280;24026;49.446;8.576;2024-02-23T08:07:41;98737.50;;;13.53;44.32
38227;BME280;24026;49.446;8.576;2024-02-23T08:10:01;98738.56;;;13.52;44.65
38227;BME280;24026;49.446;8.576;2024-02-23T08:12:23;98743.63;;;13.54;44.39
38227;BME280;24026;49.446;8.576;2024-02-23T08:14:43;98738.28;;;13.54;44.40
38227;BME280;24026;49.446;8.576;2024-02-23T08:17:05;98740.66;;;13.56;44.22
38227;BME280;24026;49.446;8.576;2024-02-23T08:19:26;98741.44;;;13.56;44.14
38227;BME280;24026;49.446;8.576;2024-02-23T08:21:46;98743.03;;;13.57;44.12
38227;BME280;24026;49.446;8.576;2024-02-23T08:24:06;98750.72;;;13.59;44.39
38227;BME280;24026;49.446;8.576;2024-02-23T08:26:27;98745.38;;;13.59;44.12
38227;BME280;24026;49.446;8.576;2024-02-23T08:28:47;98745.09;;;13.60;44.01
38227;BME280;24026;49.446;8.576;2024-02-23T08:31:08;98751.22;;;13.61;43.82
38227;BME280;24026;49.446;8.576;2024-02-23T08:33:28;98747.16;;;13.63;43.76
38227;BME280;24026;49.446;8.576;2024-02-23T08:35:49;98745.28;;;13.64;43.62
38227;BME280;24026;49.446;8.576;2024-02-23T08:38:10;98738.84;;;13.65;43.78
38227;BME280;24026;49.446;8.576;2024-02-23T08:40:30;98735.06;;;13.66;43.82
38227;BME280;24026;49.446;8.576;2024-02-23T08:42:51;98735.56;;;13.68;43.78
38227;BME280;24026;49.446;8.576;2024-02-23T08:45:12;98731.81;;;13.69;43.42
38227;BME280;24026;49.446;8.576;2024-02-23T08:47:33;98728.06;;;13.70;43.50
38227;BME280;24026;49.446;8.576;2024-02-23T08:49:55;98728.84;;;13.70;43.49
38227;BME280;24026;49.446;8.576;2024-02-23T08:52:15;98724.75;;;13.73;43.42
38227;BME280;24026;49.446;8.576;2024-02-23T08:54:36;98720.22;;;13.74;43.37
38227;BME280;24026;49.446;8.576;2024-02-23T08:56:57;98718.03;;;13.76;43.41
38227;BME280;24026;49.446;8.576;2024-02-23T08:59:18;98717.75;;;13.77;43.38
38227;BME280;24026;49.446;8.576;2024-02-23T09:01:38;98721.19;;;13.78;43.14
38227;BME280;24026;49.446;8.576;2024-02-23T09:03:58;98715.56;;;13.79;43.08
38227;BME280;24026;49.446;8.576;2024-02-23T09:06:19;98719.00;;;13.80;43.05
38227;BME280;24026;49.446;8.576;2024-02-23T09:08:40;98708.81;;;13.82;43.12
38227;BME280;24026;49.446;8.576;2024-02-23T09:11:01;98706.16;;;13.82;42.88
38227;BME280;24026;49.446;8.576;2024-02-23T09:13:22;98708.53;;;13.83;42.94
38227;BME280;24026;49.446;8.576;2024-02-23T09:15:42;98710.09;;;13.84;43.01
38227;BME280;24026;49.446;8.576;2024-02-23T09:18:03;98702.06;;;13.84;43.03
38227;BME280;24026;49.446;8.576;2024-02-23T09:20:24;98690.31;;;13.85;42.75
38227;BME280;24026;49.446;8.576;2024-02-23T09:22:44;98691.88;;;13.86;43.16
38227;BME280;24026;49.446;8.576;2024-02-23T09:25:07;98688.91;;;13.88;42.64
38227;BME280;24026;49.446;8.576;2024-02-23T09:27:29;98688.13;;;13.87;42.56
38227;BME280;24026;49.446;8.576;2024-02-23T09:29:50;98684.38;;;13.88;42.53
38227;BME280;24026;49.446;8.576;2024-02-23T09:32:11;98685.16;;;13.89;42.61
38227;BME280;24026;49.446;8.576;2024-02-23T09:34:32;98678.72;;;13.90;42.54
38227;BME280;24026;49.446;8.576;2024-02-23T09:36:52;98685.63;;;13.91;42.45
38227;BME280;24026;49.446;8.576;2024-02-23T09:39:13;98679.97;;;13.93;42.47
38227;BME280;24026;49.446;8.576;2024-02-23T09:41:33;98682.66;;;13.93;42.50
38227;BME280;24026;49.446;8.576;2024-02-23T09:43:56;98683.94;;;13.95;42.47
38227;BME280;24026;49.446;8.576;2024-02-23T09:46:18;98685.50;;;13.96;42.29
38227;BME280;24026;49.446;8.576;2024-02-23T09:48:39;98691.34;;;13.98;42.32
38227;BME280;24026;49.446;8.576;2024-02-23T09:51:00;98676.88;;;13.99;42.25
38227;BME280;24026;49.446;8.576;2024-02-23T09:53:21;98682.69;;;14.01;42.38
38227;BME280;24026;49.446;8.576;2024-02-23T09:55:42;98685.06;;;14.03;42.12
38227;BME280;24026;49.446;8.576;2024-02-23T09:58:04;98680.22;;;14.05;42.23
38227;BME280;24026;49.446;8.576;2024-02-23T10:00:27;98686.84;;;14.07;42.22
38227;BME280;24026;49.446;8.576;2024-02-23T10:02:49;98687.31;;;14.09;42.29
38227;BME280;24026;49.446;8.576;2024-02-23T10:05:11;98693.63;;;14.14;42.25
38227;BME280;24026;49.446;8.576;2024-02-23T10:07:34;98694.88;;;14.16;42.05
38227;BME280;24026;49.446;8.576;2024-02-23T10:09:55;98702.28;;;14.19;41.84
38227;BME280;24026;49.446;8.576;2024-02-23T10:12:16;98701.38;;;14.24;41.91
38227;BME280;24026;49.446;8.576;2024-02-23T10:14:38;98703.44;;;14.27;41.85
38227;BME280;24026;49.446;8.576;2024-02-23T10:17:01;98699.38;;;14.30;41.70
38227;BME280;24026;49.446;8.576;2024-02-23T10:19:22;98696.09;;;14.33;41.77
38227;BME280;24026;49.446;8.576;2024-02-23T10:21:48;98691.22;;;14.35;41.57
38227;BME280;24026;49.446;8.576;2024-02-23T10:24:09;98700.50;;;14.37;41.53
38227;BME280;24026;49.446;8.576;2024-02-23T10:26:30;98700.97;;;14.39;41.39
38227;BME280;24026;49.446;8.576;2024-02-23T10:28:50;98705.72;;;14.42;41.28
38227;BME280;24026;49.446;8.576;2024-02-23T10:31:11;98700.84;;;14.44;41.48
38227;BME280;24026;49.446;8.576;2024-02-23T10:33:31;98693.31;;;14.46;41.18
38227;BME280;24026;49.446;8.576;2024-02-23T10:35:59;98703.69;;;14.48;41.27
38227;BME280;24026;49.446;8.576;2024-02-23T10:38:20;98699.63;;;14.51;41.32
38227;BME280;24026;49.446;8.576;2024-02-23T10:40:43;98692.09;;;14.53;41.23
38227;BME280;24026;49.446;8.576;2024-02-23T10:43:05;98688.78;;;14.56;41.10
38227;BME280;24026;49.446;8.576;2024-02-23T10:45:28;98686.59;;;14.58;41.19
38227;BME280;24026;49.446;8.576;2024-02-23T10:47:50;98693.25;;;14.60;41.12
38227;BME280;24026;49.446;8.576;2024-02-23T10:50:12;98683.81;;;14.63;41.24
38227;BME280;24026;49.446;8.576;2024-02-23T10:52:36;98690.44;;;14.66;40.97
38227;BME280;24026;49.446;8.576;2024-02-23T10:54:57;98692.50;;;14.69;41.06
38227;BME280;24026;49.446;8.576;2024-02-23T10:57:20;98690.31;;;14.71;40.94
38227;BME280;24026;49.446;8.576;2024-02-23T10:59:41;98689.38;;;14.75;40.85
38227;BME280;24026;49.446;8.576;2024-02-23T11:02:02;98687.97;;;14.78;40.89
38227;BME280;24026;49.446;8.576;2024-02-23T11:04:26;98691.09;;;14.80;40.85
38227;BME280;24026;49.446;8.576;2024-02-23T11:06:51;98688.94;;;14.82;40.85
38227;BME280;24026;49.446;8.576;2024-02-23T11:09:12;98677.91;;;14.84;40.90
38227;BME280;24026;49.446;8.576;2024-02-23T11:11:33;98679.16;;;14.86;40.77
38227;BME280;24026;49.446;8.576;2024-02-23T11:13:55;98674.28;;;14.88;40.72
38227;BME280;24026;49.446;8.576;2024-02-23T11:16:22;98673.97;;;14.90;40.78
38227;BME280;24026;49.446;8.576;2024-02-23T11:18:46;98675.56;;;14.91;40.65
38227;BME280;24026;49.446;8.576;2024-02-23T11:21:09;98677.94;;;14.92;40.79
38227;BME280;24026;49.446;8.576;2024-02-23T11:28:26;98668.16;;;14.96;40.66
38227;BME280;24026;49.446;8.576;2024-02-23T11:30:47;98680.47;;;14.97;40.71
38227;BME280;24026;49.446;8.576;2024-02-23T11:33:08;98672.44;;;14.97;40.69
38227;BME280;24026;49.446;8.576;2024-02-23T11:35:29;98667.09;;;14.97;40.48
38227;BME280;24026;49.446;8.576;2024-02-23T11:37:53;98663.31;;;14.98;40.56
38227;BME280;24026;49.446;8.576;2024-02-23T11:40:21;98665.19;;;14.98;40.53
38227;BME280;24026;49.446;8.576;2024-02-23T11:42:42;98666.00;;;14.98;40.68
38227;BME280;24026;49.446;8.576;2024-02-23T11:45:04;98656.84;;;14.99;40.56
38227;BME280;24026;49.446;8.576;2024-02-23T11:47:25;98661.72;;;14.97;40.49
38227;BME280;24026;49.446;8.576;2024-02-23T11:49:45;98659.38;;;14.96;40.61
38227;BME280;24026;49.446;8.576;2024-02-23T11:52:06;98657.16;;;14.98;40.59
38227;BME280;24026;49.446;8.576;2024-02-23T11:54:26;98655.91;;;14.95;40.66
38227;BME280;24026;49.446;8.576;2024-02-23T11:56:48;98658.59;;;14.95;40.57
38227;BME280;24026;49.446;8.576;2024-02-23T11:59:09;98668.47;;;14.95;40.57
38227;BME280;24026;49.446;8.576;2024-02-23T12:01:30;98678.41;;;14.94;40.54
38227;BME280;24026;49.446;8.576;2024-02-23T12:03:52;98673.06;;;14.94;40.45
38227;BME280;24026;49.446;8.576;2024-02-23T12:06:14;98673.84;;;14.95;40.57
38227;BME280;24026;49.446;8.576;2024-02-23T12:08:35;98671.97;;;14.95;40.68
38227;BME280;24026;49.446;8.576;2024-02-23T12:10:59;98674.94;;;14.94;40.42
38227;BME280;24026;49.446;8.576;2024-02-23T12:13:20;98675.72;;;14.94;40.42
38227;BME280;24026;49.446;8.576;2024-02-23T12:15:41;98663.13;;;14.95;40.55
38227;BME280;24026;49.446;8.576;2024-02-23T12:18:03;98661.25;;;14.95;40.35
38227;BME280;24026;49.446;8.576;2024-02-23T12:20:26;98655.09;;;14.95;40.42
38227;BME280;24026;49.446;8.576;2024-02-23T12:22:47;98651.66;;;14.94;40.41
38227;BME280;24026;49.446;8.576;2024-02-23T12:25:07;98655.91;;;14.95;40.38
38227;BME280;24026;49.446;8.576;2024-02-23T12:27:28;98656.22;;;14.94;40.34
38227;BME280;24026;49.446;8.576;2024-02-23T12:29:54;98660.75;;;14.93;40.32
38227;BME280;24026;49.446;8.576;2024-02-23T12:32:14;98665.66;;;14.91;40.27